sensor_id;sensor_type;location;lat;lon;timestamp;P1;durP1;ratioP1;P2;durP2;ratioP2
61433;SDS011;47300;46.192;9.000;2022-12-18T00:01:47;13.05;;;5.43;;
61433;SDS011;47300;46.192;9.000;2022-12-18T00:04:22;7.47;;;3.70;;
61433;SDS011;47300;46.192;9.000;2022-12-18T00:06:49;24.02;;;11.07;;
61433;SDS011;47300;46.192;9.000;2022-12-18T00:09:15;13.98;;;6.50;;
61433;SDS011;47300;46.192;9.000;2022-12-18T00:11:41;19.63;;;7.93;;
61433;SDS011;47300;46.192;9.000;2022-12-18T00:14:06;12.30;;;4.55;;
61433;SDS011;47300;46.192;9.000;2022-12-18T00:16:31;20.27;;;6.05;;
61433;SDS011;47300;46.192;9.000;2022-12-18T00:19:00;10.20;;;5.18;;
61433;SDS011;47300;46.192;9.000;2022-12-18T00:21:26;10.32;;;4.35;;
61433;SDS011;47300;46.192;9.000;2022-12-18T00:23:53;13.95;;;5.50;;
61433;SDS011;47300;46.192;9.000;2022-12-18T00:26:25;10.73;;;4.68;;
61433;SDS011;47300;46.192;9.000;2022-12-18T00:28:57;10.32;;;2.80;;
61433;SDS011;47300;46.192;9.000;2022-12-18T00:31:24;13.15;;;4.60;;
61433;SDS011;47300;46.192;9.000;2022-12-18T00:33:51;10.93;;;4.03;;
61433;SDS011;47300;46.192;9.000;2022-12-18T00:36:18;8.85;;;3.63;;
61433;SDS011;47300;46.192;9.000;2022-12-18T00:38:45;22.35;;;9.52;;
61433;SDS011;47300;46.192;9.000;2022-12-18T00:41:12;27.05;;;11.02;;
61433;SDS011;47300;46.192;9.000;2022-12-18T00:43:59;20.35;;;7.70;;
61433;SDS011;47300;46.192;9.000;2022-12-18T00:46:25;25.25;;;9.77;;
61433;SDS011;47300;46.192;9.000;2022-12-18T00:48:50;28.42;;;10.57;;
61433;SDS011;47300;46.192;9.000;2022-12-18T00:51:16;17.23;;;7.97;;
61433;SDS011;47300;46.192;9.000;2022-12-18T00:53:41;27.52;;;11.25;;
61433;SDS011;47300;46.192;9.000;2022-12-18T00:56:06;39.38;;;13.65;;
61433;SDS011;47300;46.192;9.000;2022-12-18T00:58:32;32.72;;;11.93;;
61433;SDS011;47300;46.192;9.000;2022-12-18T01:01:05;19.67;;;6.85;;
61433;SDS011;47300;46.192;9.000;2022-12-18T01:03:31;10.10;;;4.40;;
61433;SDS011;47300;46.192;9.000;2022-12-18T01:05:56;15.32;;;6.32;;
61433;SDS011;47300;46.192;9.000;2022-12-18T01:08:22;17.00;;;6.97;;
61433;SDS011;47300;46.192;9.000;2022-12-18T01:10:48;10.60;;;4.53;;
61433;SDS011;47300;46.192;9.000;2022-12-18T01:13:13;7.07;;;2.70;;
61433;SDS011;47300;46.192;9.000;2022-12-18T01:15:38;5.72;;;2.30;;
61433;SDS011;47300;46.192;9.000;2022-12-18T01:18:05;5.10;;;2.10;;
61433;SDS011;47300;46.192;9.000;2022-12-18T01:20:30;9.85;;;4.15;;
61433;SDS011;47300;46.192;9.000;2022-12-18T01:22:56;8.35;;;3.30;;
61433;SDS011;47300;46.192;9.000;2022-12-18T01:25:21;5.32;;;2.33;;
61433;SDS011;47300;46.192;9.000;2022-12-18T01:27:46;5.70;;;2.10;;
61433;SDS011;47300;46.192;9.000;2022-12-18T01:30:12;4.47;;;2.05;;
61433;SDS011;47300;46.192;9.000;2022-12-18T01:32:37;9.25;;;3.80;;
61433;SDS011;47300;46.192;9.000;2022-12-18T01:35:03;8.07;;;3.25;;
61433;SDS011;47300;46.192;9.000;2022-12-18T01:37:28;6.55;;;2.60;;
61433;SDS011;47300;46.192;9.000;2022-12-18T01:39:54;5.97;;;1.92;;
61433;SDS011;47300;46.192;9.000;2022-12-18T01:42:20;4.38;;;1.80;;
61433;SDS011;47300;46.192;9.000;2022-12-18T01:47:42;8.15;;;2.42;;
61433;SDS011;47300;46.192;9.000;2022-12-18T01:52:49;5.35;;;1.95;;
61433;SDS011;47300;46.192;9.000;2022-12-18T01:55:18;6.30;;;2.70;;
61433;SDS011;47300;46.192;9.000;2022-12-18T01:57:45;6.67;;;2.37;;
61433;SDS011;47300;46.192;9.000;2022-12-18T02:00:18;7.53;;;2.97;;
61433;SDS011;47300;46.192;9.000;2022-12-18T02:02:45;7.72;;;3.10;;
61433;SDS011;47300;46.192;9.000;2022-12-18T02:05:12;12.15;;;1.80;;
61433;SDS011;47300;46.192;9.000;2022-12-18T02:13:19;7.90;;;3.35;;
61433;SDS011;47300;46.192;9.000;2022-12-18T02:16:06;6.70;;;2.50;;
61433;SDS011;47300;46.192;9.000;2022-12-18T02:18:44;4.25;;;1.92;;
61433;SDS011;47300;46.192;9.000;2022-12-18T02:24:25;6.88;;;2.55;;
61433;SDS011;47300;46.192;9.000;2022-12-18T02:26:59;10.35;;;3.45;;
61433;SDS011;47300;46.192;9.000;2022-12-18T02:29:44;5.32;;;2.75;;
61433;SDS011;47300;46.192;9.000;2022-12-18T02:32:17;4.10;;;1.90;;
61433;SDS011;47300;46.192;9.000;2022-12-18T02:34:49;4.22;;;1.98;;
61433;SDS011;47300;46.192;9.000;2022-12-18T02:37:16;4.20;;;2.08;;
61433;SDS011;47300;46.192;9.000;2022-12-18T02:39:44;5.30;;;2.20;;
61433;SDS011;47300;46.192;9.000;2022-12-18T02:42:13;4.97;;;1.95;;
61433;SDS011;47300;46.192;9.000;2022-12-18T02:44:42;6.80;;;2.53;;
61433;SDS011;47300;46.192;9.000;2022-12-18T02:47:09;5.60;;;2.10;;
61433;SDS011;47300;46.192;9.000;2022-12-18T02:55:49;9.30;;;3.97;;
61433;SDS011;47300;46.192;9.000;2022-12-18T02:58:52;11.68;;;2.95;;
61433;SDS011;47300;46.192;9.000;2022-12-18T03:04:23;10.65;;;3.67;;
61433;SDS011;47300;46.192;9.000;2022-12-18T03:06:54;8.02;;;3.25;;
61433;SDS011;47300;46.192;9.000;2022-12-18T03:09:26;8.90;;;3.05;;
61433;SDS011;47300;46.192;9.000;2022-12-18T03:11:58;7.13;;;3.63;;
61433;SDS011;47300;46.192;9.000;2022-12-18T03:14:47;10.20;;;4.10;;
61433;SDS011;47300;46.192;9.000;2022-12-18T03:17:17;6.82;;;2.20;;
61433;SDS011;47300;46.192;9.000;2022-12-18T03:19:45;5.40;;;2.27;;
61433;SDS011;47300;46.192;9.000;2022-12-18T03:22:12;6.60;;;2.45;;
61433;SDS011;47300;46.192;9.000;2022-12-18T03:24:38;6.03;;;2.40;;
61433;SDS011;47300;46.192;9.000;2022-12-18T03:27:06;5.72;;;2.10;;
61433;SDS011;47300;46.192;9.000;2022-12-18T03:29:43;3.55;;;1.80;;
61433;SDS011;47300;46.192;9.000;2022-12-18T03:32:32;6.07;;;2.10;;
61433;SDS011;47300;46.192;9.000;2022-12-18T03:35:03;4.22;;;1.95;;
61433;SDS011;47300;46.192;9.000;2022-12-18T03:37:30;8.48;;;2.05;;
61433;SDS011;47300;46.192;9.000;2022-12-18T03:39:56;4.55;;;1.88;;
61433;SDS011;47300;46.192;9.000;2022-12-18T03:45:08;6.22;;;2.28;;
61433;SDS011;47300;46.192;9.000;2022-12-18T03:47:39;6.03;;;2.22;;
61433;SDS011;47300;46.192;9.000;2022-12-18T03:52:57;5.65;;;1.83;;
61433;SDS011;47300;46.192;9.000;2022-12-18T03:55:30;4.65;;;2.08;;
61433;SDS011;47300;46.192;9.000;2022-12-18T03:57:58;5.97;;;2.03;;
61433;SDS011;47300;46.192;9.000;2022-12-18T04:00:26;5.90;;;2.10;;
61433;SDS011;47300;46.192;9.000;2022-12-18T04:02:54;4.28;;;1.80;;
61433;SDS011;47300;46.192;9.000;2022-12-18T04:05:21;6.00;;;2.30;;
61433;SDS011;47300;46.192;9.000;2022-12-18T04:07:49;3.57;;;1.63;;
61433;SDS011;47300;46.192;9.000;2022-12-18T04:10:16;6.03;;;1.90;;
61433;SDS011;47300;46.192;9.000;2022-12-18T04:12:42;9.88;;;3.50;;
61433;SDS011;47300;46.192;9.000;2022-12-18T04:15:08;10.02;;;3.28;;
61433;SDS011;47300;46.192;9.000;2022-12-18T04:17:34;11.35;;;3.65;;
61433;SDS011;47300;46.192;9.000;2022-12-18T04:19:59;8.70;;;3.45;;
61433;SDS011;47300;46.192;9.000;2022-12-18T04:22:25;9.13;;;3.10;;
61433;SDS011;47300;46.192;9.000;2022-12-18T04:24:50;7.15;;;2.90;;
61433;SDS011;47300;46.192;9.000;2022-12-18T04:27:15;9.73;;;2.35;;
61433;SDS011;47300;46.192;9.000;2022-12-18T04:29:40;4.97;;;2.00;;
61433;SDS011;47300;46.192;9.000;2022-12-18T04:32:06;7.40;;;3.08;;
61433;SDS011;47300;46.192;9.000;2022-12-18T04:34:32;8.82;;;4.68;;
61433;SDS011;47300;46.192;9.000;2022-12-18T04:36:57;9.82;;;3.70;;
61433;SDS011;47300;46.192;9.000;2022-12-18T04:39:22;9.77;;;4.30;;
61433;SDS011;47300;46.192;9.000;2022-12-18T04:41:48;12.02;;;4.78;;
61433;SDS011;47300;46.192;9.000;2022-12-18T04:44:13;11.23;;;3.95;;
61433;SDS011;47300;46.192;9.000;2022-12-18T04:46:39;11.00;;;4.35;;
61433;SDS011;47300;46.192;9.000;2022-12-18T04:49:04;8.80;;;3.78;;
61433;SDS011;47300;46.192;9.000;2022-12-18T04:51:29;6.85;;;2.80;;
61433;SDS011;47300;46.192;9.000;2022-12-18T04:53:55;10.85;;;2.92;;
61433;SDS011;47300;46.192;9.000;2022-12-18T04:56:20;9.82;;;3.13;;
61433;SDS011;47300;46.192;9.000;2022-12-18T04:58:46;10.23;;;3.15;;
61433;SDS011;47300;46.192;9.000;2022-12-18T05:01:12;6.38;;;2.33;;
61433;SDS011;47300;46.192;9.000;2022-12-18T05:03:39;10.70;;;4.20;;
61433;SDS011;47300;46.192;9.000;2022-12-18T05:06:06;8.02;;;3.15;;
61433;SDS011;47300;46.192;9.000;2022-12-18T05:08:31;10.38;;;4.15;;
61433;SDS011;47300;46.192;9.000;2022-12-18T05:11:01;8.43;;;3.55;;
61433;SDS011;47300;46.192;9.000;2022-12-18T05:13:31;8.52;;;3.17;;
61433;SDS011;47300;46.192;9.000;2022-12-18T05:15:57;13.15;;;3.28;;
61433;SDS011;47300;46.192;9.000;2022-12-18T05:18:23;9.82;;;2.85;;
61433;SDS011;47300;46.192;9.000;2022-12-18T05:20:50;7.05;;;2.50;;
61433;SDS011;47300;46.192;9.000;2022-12-18T05:23:16;6.15;;;1.73;;
61433;SDS011;47300;46.192;9.000;2022-12-18T05:25:41;5.72;;;1.80;;
61433;SDS011;47300;46.192;9.000;2022-12-18T05:28:07;8.80;;;2.03;;
61433;SDS011;47300;46.192;9.000;2022-12-18T05:30:32;5.80;;;2.08;;
61433;SDS011;47300;46.192;9.000;2022-12-18T05:32:57;3.97;;;1.80;;
61433;SDS011;47300;46.192;9.000;2022-12-18T05:35:23;5.78;;;2.10;;
61433;SDS011;47300;46.192;9.000;2022-12-18T05:37:48;3.95;;;1.80;;
61433;SDS011;47300;46.192;9.000;2022-12-18T05:40:13;6.80;;;2.15;;
61433;SDS011;47300;46.192;9.000;2022-12-18T05:42:39;4.00;;;1.80;;
61433;SDS011;47300;46.192;9.000;2022-12-18T05:45:05;5.32;;;2.08;;
61433;SDS011;47300;46.192;9.000;2022-12-18T05:47:30;4.80;;;1.77;;
61433;SDS011;47300;46.192;9.000;2022-12-18T05:49:56;5.70;;;2.10;;
61433;SDS011;47300;46.192;9.000;2022-12-18T05:52:21;6.13;;;1.95;;
61433;SDS011;47300;46.192;9.000;2022-12-18T05:54:46;5.10;;;1.73;;
61433;SDS011;47300;46.192;9.000;2022-12-18T05:57:12;6.82;;;2.20;;
61433;SDS011;47300;46.192;9.000;2022-12-18T05:59:37;4.78;;;1.70;;
61433;SDS011;47300;46.192;9.000;2022-12-18T06:02:03;3.30;;;1.63;;
61433;SDS011;47300;46.192;9.000;2022-12-18T06:04:29;4.18;;;2.08;;
61433;SDS011;47300;46.192;9.000;2022-12-18T06:06:55;4.25;;;1.60;;
61433;SDS011;47300;46.192;9.000;2022-12-18T06:09:20;3.50;;;1.55;;
61433;SDS011;47300;46.192;9.000;2022-12-18T06:11:45;5.05;;;1.67;;
61433;SDS011;47300;46.192;9.000;2022-12-18T06:14:11;6.28;;;1.90;;
61433;SDS011;47300;46.192;9.000;2022-12-18T06:16:36;4.70;;;1.90;;
61433;SDS011;47300;46.192;9.000;2022-12-18T06:19:03;5.03;;;1.80;;
61433;SDS011;47300;46.192;9.000;2022-12-18T06:21:29;3.47;;;1.60;;
61433;SDS011;47300;46.192;9.000;2022-12-18T06:23:56;8.07;;;1.83;;
61433;SDS011;47300;46.192;9.000;2022-12-18T06:26:22;4.00;;;1.63;;
61433;SDS011;47300;46.192;9.000;2022-12-18T06:28:48;5.68;;;1.65;;
61433;SDS011;47300;46.192;9.000;2022-12-18T06:31:14;2.95;;;1.23;;
61433;SDS011;47300;46.192;9.000;2022-12-18T06:33:39;2.97;;;1.30;;
61433;SDS011;47300;46.192;9.000;2022-12-18T06:36:13;6.03;;;1.60;;
61433;SDS011;47300;46.192;9.000;2022-12-18T06:38:40;3.85;;;1.48;;
61433;SDS011;47300;46.192;9.000;2022-12-18T06:41:16;2.88;;;1.38;;
61433;SDS011;47300;46.192;9.000;2022-12-18T06:43:44;3.42;;;1.15;;
61433;SDS011;47300;46.192;9.000;2022-12-18T06:46:09;5.10;;;1.60;;
61433;SDS011;47300;46.192;9.000;2022-12-18T06:48:35;3.30;;;1.52;;
61433;SDS011;47300;46.192;9.000;2022-12-18T06:51:00;3.55;;;1.58;;
61433;SDS011;47300;46.192;9.000;2022-12-18T06:53:26;3.78;;;1.60;;
61433;SDS011;47300;46.192;9.000;2022-12-18T06:55:52;4.00;;;1.50;;
61433;SDS011;47300;46.192;9.000;2022-12-18T06:58:17;3.03;;;1.42;;
61433;SDS011;47300;46.192;9.000;2022-12-18T07:00:43;4.72;;;2.10;;
61433;SDS011;47300;46.192;9.000;2022-12-18T07:03:08;7.22;;;2.22;;
61433;SDS011;47300;46.192;9.000;2022-12-18T07:05:34;4.75;;;1.80;;
61433;SDS011;47300;46.192;9.000;2022-12-18T07:08:04;6.75;;;2.25;;
61433;SDS011;47300;46.192;9.000;2022-12-18T07:10:29;5.38;;;2.13;;
61433;SDS011;47300;46.192;9.000;2022-12-18T07:12:54;5.32;;;2.10;;
61433;SDS011;47300;46.192;9.000;2022-12-18T07:15:19;6.15;;;2.40;;
61433;SDS011;47300;46.192;9.000;2022-12-18T07:17:45;6.82;;;2.30;;
61433;SDS011;47300;46.192;9.000;2022-12-18T07:20:10;4.90;;;2.10;;
61433;SDS011;47300;46.192;9.000;2022-12-18T07:22:36;6.53;;;2.50;;
61433;SDS011;47300;46.192;9.000;2022-12-18T07:25:01;3.85;;;1.67;;
61433;SDS011;47300;46.192;9.000;2022-12-18T07:27:27;5.55;;;2.25;;
61433;SDS011;47300;46.192;9.000;2022-12-18T07:29:52;6.95;;;2.25;;
61433;SDS011;47300;46.192;9.000;2022-12-18T07:32:17;5.03;;;2.03;;
61433;SDS011;47300;46.192;9.000;2022-12-18T07:34:42;6.45;;;2.40;;
61433;SDS011;47300;46.192;9.000;2022-12-18T07:37:08;4.20;;;1.80;;
61433;SDS011;47300;46.192;9.000;2022-12-18T07:39:33;6.90;;;2.30;;
61433;SDS011;47300;46.192;9.000;2022-12-18T07:41:59;7.05;;;2.47;;
61433;SDS011;47300;46.192;9.000;2022-12-18T07:44:43;7.38;;;1.70;;
61433;SDS011;47300;46.192;9.000;2022-12-18T07:47:08;5.13;;;2.00;;
61433;SDS011;47300;46.192;9.000;2022-12-18T07:49:33;8.70;;;2.92;;
61433;SDS011;47300;46.192;9.000;2022-12-18T07:51:59;5.82;;;2.35;;
61433;SDS011;47300;46.192;9.000;2022-12-18T07:54:24;5.63;;;1.98;;
61433;SDS011;47300;46.192;9.000;2022-12-18T07:56:50;10.20;;;4.15;;
61433;SDS011;47300;46.192;9.000;2022-12-18T07:59:16;13.77;;;4.97;;
61433;SDS011;47300;46.192;9.000;2022-12-18T08:01:42;6.35;;;3.00;;
61433;SDS011;47300;46.192;9.000;2022-12-18T08:04:07;8.55;;;3.20;;
61433;SDS011;47300;46.192;9.000;2022-12-18T08:06:33;7.75;;;3.00;;
61433;SDS011;47300;46.192;9.000;2022-12-18T08:08:58;10.00;;;3.13;;
61433;SDS011;47300;46.192;9.000;2022-12-18T08:11:24;6.70;;;2.60;;
61433;SDS011;47300;46.192;9.000;2022-12-18T08:13:51;17.77;;;6.45;;
61433;SDS011;47300;46.192;9.000;2022-12-18T08:16:17;10.65;;;4.32;;
61433;SDS011;47300;46.192;9.000;2022-12-18T08:18:43;8.60;;;3.45;;
61433;SDS011;47300;46.192;9.000;2022-12-18T08:23:34;5.38;;;2.17;;
61433;SDS011;47300;46.192;9.000;2022-12-18T08:26:00;4.85;;;1.95;;
61433;SDS011;47300;46.192;9.000;2022-12-18T08:28:26;4.20;;;1.70;;
61433;SDS011;47300;46.192;9.000;2022-12-18T08:30:51;6.70;;;1.92;;
61433;SDS011;47300;46.192;9.000;2022-12-18T08:33:17;7.90;;;2.63;;
61433;SDS011;47300;46.192;9.000;2022-12-18T08:35:42;8.90;;;2.97;;
61433;SDS011;47300;46.192;9.000;2022-12-18T08:38:08;6.22;;;2.25;;
61433;SDS011;47300;46.192;9.000;2022-12-18T08:40:33;4.50;;;1.90;;
61433;SDS011;47300;46.192;9.000;2022-12-18T08:42:58;4.85;;;1.88;;
61433;SDS011;47300;46.192;9.000;2022-12-18T08:45:42;3.83;;;1.85;;
61433;SDS011;47300;46.192;9.000;2022-12-18T08:48:08;4.45;;;2.05;;
61433;SDS011;47300;46.192;9.000;2022-12-18T08:50:34;4.80;;;2.05;;
61433;SDS011;47300;46.192;9.000;2022-12-18T08:52:59;4.63;;;2.60;;
61433;SDS011;47300;46.192;9.000;2022-12-18T08:55:25;6.82;;;2.60;;
61433;SDS011;47300;46.192;9.000;2022-12-18T08:57:50;5.45;;;2.45;;
61433;SDS011;47300;46.192;9.000;2022-12-18T09:00:16;7.50;;;2.10;;
61433;SDS011;47300;46.192;9.000;2022-12-18T09:02:41;3.60;;;1.50;;
61433;SDS011;47300;46.192;9.000;2022-12-18T09:05:07;2.60;;;1.27;;
61433;SDS011;47300;46.192;9.000;2022-12-18T09:07:32;4.38;;;1.90;;
61433;SDS011;47300;46.192;9.000;2022-12-18T09:09:58;3.97;;;1.77;;
61433;SDS011;47300;46.192;9.000;2022-12-18T09:12:23;5.60;;;1.67;;
61433;SDS011;47300;46.192;9.000;2022-12-18T09:14:48;5.35;;;1.98;;
61433;SDS011;47300;46.192;9.000;2022-12-18T09:17:13;4.07;;;1.60;;
61433;SDS011;47300;46.192;9.000;2022-12-18T09:19:39;5.10;;;1.50;;
61433;SDS011;47300;46.192;9.000;2022-12-18T09:22:04;5.28;;;2.30;;
61433;SDS011;47300;46.192;9.000;2022-12-18T09:24:30;5.55;;;2.30;;
61433;SDS011;47300;46.192;9.000;2022-12-18T09:26:55;4.15;;;2.05;;
61433;SDS011;47300;46.192;9.000;2022-12-18T09:29:20;13.63;;;2.50;;
61433;SDS011;47300;46.192;9.000;2022-12-18T09:31:46;6.63;;;2.70;;
61433;SDS011;47300;46.192;9.000;2022-12-18T09:34:12;6.72;;;2.58;;
61433;SDS011;47300;46.192;9.000;2022-12-18T09:36:38;8.20;;;3.17;;
61433;SDS011;47300;46.192;9.000;2022-12-18T09:39:03;8.13;;;3.13;;
61433;SDS011;47300;46.192;9.000;2022-12-18T09:41:40;6.47;;;2.47;;
61433;SDS011;47300;46.192;9.000;2022-12-18T09:46:54;5.70;;;2.40;;
61433;SDS011;47300;46.192;9.000;2022-12-18T09:49:27;7.47;;;2.70;;
61433;SDS011;47300;46.192;9.000;2022-12-18T09:51:57;7.15;;;2.38;;
61433;SDS011;47300;46.192;9.000;2022-12-18T09:54:37;3.30;;;1.58;;
61433;SDS011;47300;46.192;9.000;2022-12-18T09:57:04;5.65;;;2.05;;
61433;SDS011;47300;46.192;9.000;2022-12-18T09:59:37;4.65;;;1.60;;
61433;SDS011;47300;46.192;9.000;2022-12-18T10:02:23;5.78;;;1.60;;
61433;SDS011;47300;46.192;9.000;2022-12-18T10:04:55;4.00;;;1.63;;
61433;SDS011;47300;46.192;9.000;2022-12-18T10:10:07;6.55;;;2.00;;
61433;SDS011;47300;46.192;9.000;2022-12-18T10:15:45;5.57;;;1.95;;
61433;SDS011;47300;46.192;9.000;2022-12-18T10:18:41;3.55;;;1.50;;
61433;SDS011;47300;46.192;9.000;2022-12-18T10:21:12;4.47;;;1.90;;
61433;SDS011;47300;46.192;9.000;2022-12-18T10:26:08;5.47;;;1.83;;
61433;SDS011;47300;46.192;9.000;2022-12-18T10:28:35;5.73;;;2.63;;
61433;SDS011;47300;46.192;9.000;2022-12-18T10:31:04;8.02;;;2.65;;
61433;SDS011;47300;46.192;9.000;2022-12-18T10:33:31;6.18;;;2.72;;
61433;SDS011;47300;46.192;9.000;2022-12-18T10:35:57;7.68;;;3.08;;
61433;SDS011;47300;46.192;9.000;2022-12-18T10:38:30;11.50;;;3.65;;
61433;SDS011;47300;46.192;9.000;2022-12-18T10:43:34;6.50;;;2.85;;
61433;SDS011;47300;46.192;9.000;2022-12-18T10:51:03;7.28;;;2.42;;
61433;SDS011;47300;46.192;9.000;2022-12-18T10:53:31;7.22;;;2.65;;
61433;SDS011;47300;46.192;9.000;2022-12-18T10:55:59;7.25;;;2.03;;
61433;SDS011;47300;46.192;9.000;2022-12-18T11:01:15;5.10;;;2.30;;
61433;SDS011;47300;46.192;9.000;2022-12-18T11:06:17;7.90;;;2.53;;
61433;SDS011;47300;46.192;9.000;2022-12-18T11:08:57;6.50;;;2.67;;
61433;SDS011;47300;46.192;9.000;2022-12-18T11:11:27;7.35;;;2.88;;
61433;SDS011;47300;46.192;9.000;2022-12-18T11:16:27;7.50;;;2.92;;
61433;SDS011;47300;46.192;9.000;2022-12-18T11:18:53;10.48;;;3.17;;
61433;SDS011;47300;46.192;9.000;2022-12-18T11:21:19;8.35;;;2.70;;
61433;SDS011;47300;46.192;9.000;2022-12-18T11:23:54;6.55;;;2.72;;
61433;SDS011;47300;46.192;9.000;2022-12-18T11:26:19;6.57;;;2.30;;
61433;SDS011;47300;46.192;9.000;2022-12-18T11:28:51;3.80;;;1.90;;
61433;SDS011;47300;46.192;9.000;2022-12-18T11:31:33;7.47;;;2.53;;
61433;SDS011;47300;46.192;9.000;2022-12-18T11:34:20;4.15;;;1.90;;
61433;SDS011;47300;46.192;9.000;2022-12-18T11:36:51;7.63;;;2.30;;
61433;SDS011;47300;46.192;9.000;2022-12-18T11:39:24;6.82;;;2.40;;
61433;SDS011;47300;46.192;9.000;2022-12-18T11:42:01;6.15;;;2.17;;
61433;SDS011;47300;46.192;9.000;2022-12-18T11:45:23;5.38;;;1.70;;
61433;SDS011;47300;46.192;9.000;2022-12-18T11:47:43;11.90;;;2.50;;
61433;SDS011;47300;46.192;9.000;2022-12-18T11:50:18;10.13;;;2.60;;
61433;SDS011;47300;46.192;9.000;2022-12-18T11:52:47;7.20;;;2.85;;
61433;SDS011;47300;46.192;9.000;2022-12-18T11:55:14;6.28;;;2.60;;
61433;SDS011;47300;46.192;9.000;2022-12-18T11:57:51;8.45;;;2.20;;
61433;SDS011;47300;46.192;9.000;2022-12-18T12:00:24;7.90;;;2.55;;
61433;SDS011;47300;46.192;9.000;2022-12-18T12:05:46;7.07;;;2.33;;
61433;SDS011;47300;46.192;9.000;2022-12-18T12:08:29;5.25;;;1.92;;
61433;SDS011;47300;46.192;9.000;2022-12-18T12:11:04;7.18;;;2.10;;
61433;SDS011;47300;46.192;9.000;2022-12-18T12:16:10;6.65;;;2.22;;
61433;SDS011;47300;46.192;9.000;2022-12-18T12:24:11;7.15;;;2.17;;
61433;SDS011;47300;46.192;9.000;2022-12-18T12:29:59;5.55;;;2.58;;
61433;SDS011;47300;46.192;9.000;2022-12-18T12:38:00;7.10;;;2.55;;
61433;SDS011;47300;46.192;9.000;2022-12-18T12:40:33;5.22;;;2.25;;
61433;SDS011;47300;46.192;9.000;2022-12-18T12:43:04;8.10;;;2.30;;
61433;SDS011;47300;46.192;9.000;2022-12-18T12:46:28;5.35;;;2.00;;
61433;SDS011;47300;46.192;9.000;2022-12-18T12:51:27;11.57;;;2.80;;
61433;SDS011;47300;46.192;9.000;2022-12-18T12:53:57;9.85;;;2.28;;
61433;SDS011;47300;46.192;9.000;2022-12-18T12:56:24;6.22;;;2.63;;
61433;SDS011;47300;46.192;9.000;2022-12-18T12:59:15;5.18;;;2.33;;
61433;SDS011;47300;46.192;9.000;2022-12-18T13:04:51;7.05;;;2.60;;
61433;SDS011;47300;46.192;9.000;2022-12-18T13:07:55;6.88;;;3.00;;
61433;SDS011;47300;46.192;9.000;2022-12-18T13:15:22;7.38;;;2.42;;
61433;SDS011;47300;46.192;9.000;2022-12-18T13:17:48;5.57;;;2.78;;
61433;SDS011;47300;46.192;9.000;2022-12-18T13:20:32;11.60;;;3.70;;
61433;SDS011;47300;46.192;9.000;2022-12-18T13:25:53;10.73;;;3.75;;
61433;SDS011;47300;46.192;9.000;2022-12-18T13:31:08;9.35;;;3.17;;
61433;SDS011;47300;46.192;9.000;2022-12-18T13:33:46;10.55;;;3.60;;
61433;SDS011;47300;46.192;9.000;2022-12-18T13:36:13;9.80;;;3.13;;
61433;SDS011;47300;46.192;9.000;2022-12-18T13:38:42;10.18;;;3.40;;
61433;SDS011;47300;46.192;9.000;2022-12-18T13:43:46;12.55;;;3.53;;
61433;SDS011;47300;46.192;9.000;2022-12-18T13:51:32;13.55;;;4.97;;
61433;SDS011;47300;46.192;9.000;2022-12-18T13:56:45;8.90;;;3.88;;
61433;SDS011;47300;46.192;9.000;2022-12-18T14:01:52;11.05;;;4.13;;
61433;SDS011;47300;46.192;9.000;2022-12-18T14:06:49;11.52;;;4.15;;
61433;SDS011;47300;46.192;9.000;2022-12-18T14:09:23;13.93;;;4.38;;
61433;SDS011;47300;46.192;9.000;2022-12-18T14:11:50;12.65;;;4.75;;
61433;SDS011;47300;46.192;9.000;2022-12-18T14:14:17;10.38;;;4.68;;
61433;SDS011;47300;46.192;9.000;2022-12-18T14:16:44;11.23;;;4.60;;
61433;SDS011;47300;46.192;9.000;2022-12-18T14:19:15;11.50;;;4.55;;
61433;SDS011;47300;46.192;9.000;2022-12-18T14:21:49;12.73;;;5.80;;
61433;SDS011;47300;46.192;9.000;2022-12-18T14:24:16;11.60;;;5.40;;
61433;SDS011;47300;46.192;9.000;2022-12-18T14:26:43;14.98;;;5.28;;
61433;SDS011;47300;46.192;9.000;2022-12-18T14:34:37;8.38;;;4.55;;
61433;SDS011;47300;46.192;9.000;2022-12-18T14:37:02;12.38;;;4.45;;
61433;SDS011;47300;46.192;9.000;2022-12-18T14:39:27;11.02;;;4.25;;
61433;SDS011;47300;46.192;9.000;2022-12-18T14:41:53;12.60;;;4.72;;
61433;SDS011;47300;46.192;9.000;2022-12-18T14:44:18;7.95;;;4.40;;
61433;SDS011;47300;46.192;9.000;2022-12-18T14:46:46;11.80;;;4.50;;
61433;SDS011;47300;46.192;9.000;2022-12-18T14:49:21;12.27;;;5.68;;
61433;SDS011;47300;46.192;9.000;2022-12-18T14:51:52;11.80;;;5.82;;
61433;SDS011;47300;46.192;9.000;2022-12-18T14:54:23;10.30;;;4.25;;
61433;SDS011;47300;46.192;9.000;2022-12-18T14:57:00;18.42;;;6.55;;
61433;SDS011;47300;46.192;9.000;2022-12-18T14:59:27;12.77;;;6.18;;
61433;SDS011;47300;46.192;9.000;2022-12-18T15:04:41;11.10;;;5.15;;
61433;SDS011;47300;46.192;9.000;2022-12-18T15:07:16;10.10;;;4.47;;
61433;SDS011;47300;46.192;9.000;2022-12-18T15:12:36;11.30;;;5.13;;
61433;SDS011;47300;46.192;9.000;2022-12-18T15:15:04;12.23;;;4.25;;
61433;SDS011;47300;46.192;9.000;2022-12-18T15:17:30;12.27;;;5.75;;
61433;SDS011;47300;46.192;9.000;2022-12-18T15:19:59;12.18;;;5.07;;
61433;SDS011;47300;46.192;9.000;2022-12-18T15:22:30;12.82;;;7.30;;
61433;SDS011;47300;46.192;9.000;2022-12-18T15:25:00;21.35;;;8.52;;
61433;SDS011;47300;46.192;9.000;2022-12-18T15:27:30;12.88;;;5.97;;
61433;SDS011;47300;46.192;9.000;2022-12-18T15:32:32;43.47;;;18.75;;
61433;SDS011;47300;46.192;9.000;2022-12-18T15:37:50;49.05;;;18.52;;
61433;SDS011;47300;46.192;9.000;2022-12-18T15:40:18;14.60;;;6.85;;
61433;SDS011;47300;46.192;9.000;2022-12-18T15:42:45;18.48;;;8.10;;
61433;SDS011;47300;46.192;9.000;2022-12-18T15:45:29;12.75;;;3.92;;
61433;SDS011;47300;46.192;9.000;2022-12-18T15:47:55;12.52;;;3.75;;
61433;SDS011;47300;46.192;9.000;2022-12-18T15:50:20;10.55;;;3.80;;
61433;SDS011;47300;46.192;9.000;2022-12-18T15:52:46;11.27;;;5.53;;
61433;SDS011;47300;46.192;9.000;2022-12-18T15:55:15;22.10;;;10.88;;
61433;SDS011;47300;46.192;9.000;2022-12-18T15:58:01;11.35;;;6.03;;
61433;SDS011;47300;46.192;9.000;2022-12-18T16:00:27;11.52;;;3.90;;
61433;SDS011;47300;46.192;9.000;2022-12-18T16:02:52;8.88;;;3.67;;
61433;SDS011;47300;46.192;9.000;2022-12-18T16:05:18;12.50;;;6.30;;
61433;SDS011;47300;46.192;9.000;2022-12-18T16:07:45;14.30;;;7.18;;
61433;SDS011;47300;46.192;9.000;2022-12-18T16:10:11;13.05;;;7.53;;
61433;SDS011;47300;46.192;9.000;2022-12-18T16:12:37;15.60;;;8.10;;
61433;SDS011;47300;46.192;9.000;2022-12-18T16:15:03;9.98;;;4.53;;
61433;SDS011;47300;46.192;9.000;2022-12-18T16:17:29;13.27;;;6.65;;
61433;SDS011;47300;46.192;9.000;2022-12-18T16:19:54;13.50;;;6.05;;
61433;SDS011;47300;46.192;9.000;2022-12-18T16:22:21;20.88;;;10.50;;
61433;SDS011;47300;46.192;9.000;2022-12-18T16:24:52;33.42;;;14.60;;
61433;SDS011;47300;46.192;9.000;2022-12-18T16:27:19;34.92;;;14.05;;
61433;SDS011;47300;46.192;9.000;2022-12-18T16:29:45;26.38;;;13.07;;
61433;SDS011;47300;46.192;9.000;2022-12-18T16:32:12;27.75;;;13.90;;
61433;SDS011;47300;46.192;9.000;2022-12-18T16:34:39;21.83;;;9.95;;
61433;SDS011;47300;46.192;9.000;2022-12-18T16:37:05;14.80;;;7.75;;
61433;SDS011;47300;46.192;9.000;2022-12-18T16:39:33;30.27;;;19.10;;
61433;SDS011;47300;46.192;9.000;2022-12-18T16:41:59;33.20;;;19.77;;
61433;SDS011;47300;46.192;9.000;2022-12-18T16:44:25;21.25;;;12.65;;
61433;SDS011;47300;46.192;9.000;2022-12-18T16:46:50;23.90;;;13.25;;
61433;SDS011;47300;46.192;9.000;2022-12-18T16:49:16;10.77;;;5.80;;
61433;SDS011;47300;46.192;9.000;2022-12-18T16:51:43;19.15;;;9.55;;
61433;SDS011;47300;46.192;9.000;2022-12-18T16:54:09;23.98;;;11.85;;
61433;SDS011;47300;46.192;9.000;2022-12-18T16:56:34;38.58;;;18.95;;
61433;SDS011;47300;46.192;9.000;2022-12-18T16:59:00;35.63;;;21.05;;